Time;durP1;ratioP1;P1;durP2;ratioP2;P2;SDS_P1;SDS_P2;PMS_P1;PMS_P2;Temp;Humidity;BMP_temperature;BMP_pressure;BME280_temperature;BME280_humidity;BME280_pressure;Samples;Min_cycle;Max_cycle;Signal;HPM_P1;HPM_P2
2022/08/02 00:01:53;;;;;;;9.50;1.60;;;;;;;;;;5053898;28;20204;-64
2022/08/02 00:04:18;;;;;;;7.05;1.35;;;;;;;;;;5052634;28;20238;-65
2022/08/02 00:06:44;;;;;;;7.57;1.30;;;;;;;;;;5053916;28;20215;-65
2022/08/02 00:09:09;;;;;;;5.25;1.35;;;;;;;;;;5035332;28;20229;-65
2022/08/02 00:11:34;;;;;;;5.53;1.25;;;;;;;;;;5053161;28;20669;-65
2022/08/02 00:13:59;;;;;;;5.97;1.40;;;;;;;;;;5053988;28;20211;-64
2022/08/02 00:16:25;;;;;;;8.52;1.42;;;;;;;;;;5053395;28;20231;-65
2022/08/02 00:18:50;;;;;;;5.80;1.63;;;;;;;;;;5053041;28;20222;-65
2022/08/02 00:21:15;;;;;;;6.88;1.27;;;;;;;;;;5053480;28;20211;-65
2022/08/02 00:23:41;;;;;;;5.90;1.50;;;;;;;;;;5053764;28;20219;-65
2022/08/02 00:26:06;;;;;;;5.68;1.40;;;;;;;;;;5052514;28;20270;-65
2022/08/02 00:28:31;;;;;;;4.50;1.55;;;;;;;;;;5053769;28;20700;-65
2022/08/02 00:30:57;;;;;;;4.72;1.45;;;;;;;;;;5053309;28;20637;-65
2022/08/02 00:33:22;;;;;;;3.65;1.45;;;;;;;;;;5052272;28;20218;-64
2022/08/02 00:35:47;;;;;;;6.13;1.70;;;;;;;;;;5053330;28;20209;-65
2022/08/02 00:38:13;;;;;;;6.78;1.35;;;;;;;;;;5052909;28;20214;-65
2022/08/02 00:40:38;;;;;;;8.85;1.50;;;;;;;;;;5052457;28;20218;-65
2022/08/02 00:43:06;;;;;;;6.90;2.03;;;;;;;;;;5052925;28;20221;-65
2022/08/02 00:45:31;;;;;;;5.75;1.55;;;;;;;;;;5053227;28;20700;-65
2022/08/02 00:47:57;;;;;;;5.72;1.60;;;;;;;;;;5054928;28;20314;-65
2022/08/02 00:50:22;;;;;;;5.50;1.70;;;;;;;;;;5036562;28;20240;-66
2022/08/02 00:52:47;;;;;;;5.28;1.42;;;;;;;;;;5027574;28;20220;-66
2022/08/02 00:55:13;;;;;;;5.57;1.52;;;;;;;;;;5027277;28;20607;-66
2022/08/02 00:57:38;;;;;;;7.55;1.90;;;;;;;;;;5021780;28;20757;-66
2022/08/02 01:00:04;;;;;;;7.32;1.63;;;;;;;;;;5029324;28;20323;-66
2022/08/02 01:02:29;;;;;;;6.22;1.40;;;;;;;;;;5008569;28;20220;-66
2022/08/02 01:04:54;;;;;;;5.45;1.50;;;;;;;;;;5039222;28;20276;-66
2022/08/02 01:07:19;;;;;;;6.88;1.70;;;;;;;;;;5038721;28;20654;-66
2022/08/02 01:09:45;;;;;;;4.25;1.45;;;;;;;;;;5036328;28;20330;-65
2022/08/02 01:12:10;;;;;;;5.45;1.63;;;;;;;;;;5030846;28;20576;-66
2022/08/02 01:14:36;;;;;;;6.85;1.58;;;;;;;;;;5036330;28;20219;-66
2022/08/02 01:17:14;;;;;;;6.72;1.70;;;;;;;;;;5016133;28;20275;-66
2022/08/02 01:19:46;;;;;;;3.55;1.40;;;;;;;;;;5014400;28;20229;-66
2022/08/02 01:22:34;;;;;;;5.88;1.83;;;;;;;;;;5022727;28;21256;-66
2022/08/02 01:25:14;;;;;;;6.90;1.60;;;;;;;;;;5016867;28;20207;-66
2022/08/02 01:27:46;;;;;;;7.45;1.77;;;;;;;;;;5031065;28;20233;-66
2022/08/02 01:30:12;;;;;;;5.45;1.50;;;;;;;;;;5023726;28;20270;-66
2022/08/02 01:32:40;;;;;;;6.32;2.00;;;;;;;;;;5029695;28;20243;-66
2022/08/02 01:35:07;;;;;;;5.28;1.80;;;;;;;;;;5022301;28;20854;-66
2022/08/02 01:37:36;;;;;;;5.57;1.77;;;;;;;;;;5037099;28;20500;-66
2022/08/02 01:40:04;;;;;;;7.90;2.00;;;;;;;;;;5029836;28;20330;-66
2022/08/02 01:42:29;;;;;;;5.20;1.50;;;;;;;;;;5020931;28;20745;-66
2022/08/02 01:44:54;;;;;;;6.53;1.63;;;;;;;;;;5012437;28;20309;-66
2022/08/02 01:47:20;;;;;;;5.78;1.60;;;;;;;;;;5021500;28;20224;-66
2022/08/02 01:49:46;;;;;;;4.15;1.75;;;;;;;;;;5014823;28;20781;-66
2022/08/02 01:52:21;;;;;;;7.03;1.60;;;;;;;;;;5012499;28;20251;-66
2022/08/02 01:54:48;;;;;;;5.93;1.60;;;;;;;;;;5034830;28;20293;-66
2022/08/02 01:57:14;;;;;;;5.40;1.73;;;;;;;;;;5013410;28;20229;-66
2022/08/02 01:59:39;;;;;;;6.50;1.80;;;;;;;;;;5020552;28;20234;-66
2022/08/02 02:02:05;;;;;;;6.18;1.70;;;;;;;;;;5034586;28;20302;-65
2022/08/02 02:04:31;;;;;;;7.22;1.90;;;;;;;;;;5021898;28;20228;-65
2022/08/02 02:06:56;;;;;;;7.68;1.83;;;;;;;;;;5030482;28;20576;-65
2022/08/02 02:09:21;;;;;;;8.65;1.95;;;;;;;;;;5029805;28;20206;-65
2022/08/02 02:11:47;;;;;;;7.72;1.67;;;;;;;;;;5023111;28;20231;-65
2022/08/02 02:14:12;;;;;;;7.13;1.58;;;;;;;;;;5015427;28;20210;-65
2022/08/02 02:16:37;;;;;;;7.68;1.90;;;;;;;;;;5018823;28;20219;-65
2022/08/02 02:19:03;;;;;;;8.52;1.90;;;;;;;;;;5023062;28;20218;-65
2022/08/02 02:21:28;;;;;;;6.50;1.90;;;;;;;;;;5029991;28;20766;-65
2022/08/02 02:23:53;;;;;;;4.68;1.80;;;;;;;;;;5029405;28;20216;-65
2022/08/02 02:26:18;;;;;;;6.05;2.03;;;;;;;;;;5029787;28;20262;-65
2022/08/02 02:28:45;;;;;;;5.18;1.77;;;;;;;;;;5031244;28;20212;-65
2022/08/02 02:31:11;;;;;;;9.73;2.03;;;;;;;;;;5021459;28;20319;-65
2022/08/02 02:33:39;;;;;;;5.18;1.75;;;;;;;;;;5007646;28;20216;-65
2022/08/02 02:36:04;;;;;;;6.00;1.75;;;;;;;;;;5018457;28;20218;-65
2022/08/02 02:38:30;;;;;;;6.80;2.05;;;;;;;;;;5026753;28;20223;-65
2022/08/02 02:40:56;;;;;;;4.97;1.85;;;;;;;;;;5034947;28;20869;-65
2022/08/02 02:43:21;;;;;;;7.35;1.90;;;;;;;;;;5027290;28;20227;-65
2022/08/02 02:45:46;;;;;;;4.78;1.88;;;;;;;;;;5034605;28;20253;-65
2022/08/02 02:48:12;;;;;;;6.47;2.10;;;;;;;;;;5025890;28;20223;-65
2022/08/02 02:50:38;;;;;;;6.82;2.53;;;;;;;;;;5029336;28;20230;-65
2022/08/02 02:53:03;;;;;;;7.15;1.65;;;;;;;;;;5026730;28;20215;-65
2022/08/02 02:55:28;;;;;;;6.97;2.10;;;;;;;;;;5029535;28;20232;-65
2022/08/02 02:57:54;;;;;;;5.93;1.77;;;;;;;;;;5026404;28;20546;-65
2022/08/02 03:01:26;;;;;;;5.30;1.98;;;;;;;;;;5019651;28;20226;-65
2022/08/02 03:03:05;;;;;;;4.38;1.85;;;;;;;;;;5026730;28;20216;-65
2022/08/02 03:05:30;;;;;;;6.57;2.00;;;;;;;;;;5033281;28;20234;-65
2022/08/02 03:07:55;;;;;;;7.85;2.00;;;;;;;;;;5036213;28;20223;-65
2022/08/02 03:10:21;;;;;;;7.57;2.05;;;;;;;;;;5037407;28;20223;-65
2022/08/02 03:12:46;;;;;;;6.32;2.13;;;;;;;;;;5005498;28;20207;-65
2022/08/02 03:15:11;;;;;;;9.98;2.10;;;;;;;;;;5013264;28;21063;-65
2022/08/02 03:17:37;;;;;;;7.40;2.05;;;;;;;;;;5017859;28;20302;-65
2022/08/02 03:20:07;;;;;;;9.48;2.25;;;;;;;;;;5038084;28;20719;-65
2022/08/02 03:22:32;;;;;;;7.72;2.00;;;;;;;;;;5032760;28;20223;-65
2022/08/02 03:24:57;;;;;;;5.47;2.15;;;;;;;;;;5029055;28;20235;-65
2022/08/02 03:27:23;;;;;;;7.60;2.40;;;;;;;;;;5030638;28;21088;-65
2022/08/02 03:29:48;;;;;;;8.63;2.35;;;;;;;;;;5039547;28;20288;-65
2022/08/02 03:32:13;;;;;;;5.72;2.20;;;;;;;;;;5031880;28;20219;-65
2022/08/02 03:34:38;;;;;;;8.18;2.50;;;;;;;;;;5028540;28;20235;-66
2022/08/02 03:37:04;;;;;;;9.73;2.30;;;;;;;;;;5017983;28;20858;-65
2022/08/02 03:39:29;;;;;;;10.27;2.33;;;;;;;;;;5018458;28;20286;-65
2022/08/02 03:41:54;;;;;;;6.35;2.40;;;;;;;;;;5030212;28;20223;-65
2022/08/02 03:44:20;;;;;;;7.55;2.70;;;;;;;;;;5024417;28;20219;-65
2022/08/02 03:46:46;;;;;;;6.88;2.38;;;;;;;;;;5033734;28;20307;-65
2022/08/02 03:49:11;;;;;;;9.30;2.53;;;;;;;;;;5030198;28;20227;-65
2022/08/02 03:51:36;;;;;;;5.45;2.42;;;;;;;;;;5026108;28;20254;-65
2022/08/02 03:54:02;;;;;;;6.97;2.70;;;;;;;;;;5023652;28;20212;-65
2022/08/02 03:56:27;;;;;;;6.88;2.75;;;;;;;;;;5022548;28;20269;-65
2022/08/02 03:59:05;;;;;;;6.97;2.63;;;;;;;;;;5029611;28;20667;-65
2022/08/02 04:01:31;;;;;;;16.58;3.33;;;;;;;;;;5030281;28;20306;-65
2022/08/02 04:03:56;;;;;;;7.55;3.05;;;;;;;;;;5028756;28;20277;-64
2022/08/02 04:06:21;;;;;;;8.50;2.55;;;;;;;;;;5037824;28;20547;-64
2022/08/02 04:08:47;;;;;;;9.50;2.78;;;;;;;;;;5028789;28;20219;-64
2022/08/02 04:11:30;;;;;;;6.70;2.35;;;;;;;;;;5027547;28;20232;-65
2022/08/02 04:13:57;;;;;;;7.72;2.72;;;;;;;;;;5033260;28;21218;-64
2022/08/02 04:16:28;;;;;;;8.55;2.40;;;;;;;;;;5033592;28;20274;-64
2022/08/02 04:18:54;;;;;;;7.35;2.65;;;;;;;;;;5023117;28;21010;-64
2022/08/02 04:21:20;;;;;;;8.30;2.53;;;;;;;;;;5021995;28;20243;-64
2022/08/02 04:23:46;;;;;;;7.80;2.63;;;;;;;;;;5011171;28;20327;-64
2022/08/02 04:26:11;;;;;;;7.82;2.42;;;;;;;;;;5028328;28;20674;-64
2022/08/02 04:28:36;;;;;;;7.38;2.67;;;;;;;;;;5042731;28;20337;-64
2022/08/02 04:31:02;;;;;;;6.47;2.20;;;;;;;;;;5024398;28;20281;-64
2022/08/02 04:33:27;;;;;;;8.70;2.53;;;;;;;;;;5042698;28;20697;-64
2022/08/02 04:35:52;;;;;;;6.80;2.10;;;;;;;;;;5023549;28;20208;-65
2022/08/02 04:38:17;;;;;;;8.48;2.30;;;;;;;;;;5031807;28;20245;-64
2022/08/02 04:40:51;;;;;;;5.53;1.98;;;;;;;;;;5037553;28;20213;-65
2022/08/02 04:43:16;;;;;;;5.00;1.90;;;;;;;;;;4997911;28;20310;-65
2022/08/02 04:45:42;;;;;;;24.20;3.25;;;;;;;;;;5027842;28;20216;-67
2022/08/02 04:48:08;;;;;;;11.23;2.28;;;;;;;;;;5018469;28;20212;-67
2022/08/02 04:50:33;;;;;;;8.38;2.10;;;;;;;;;;5025815;28;20227;-65
2022/08/02 04:52:59;;;;;;;9.13;2.03;;;;;;;;;;5026678;28;20230;-67
2022/08/02 04:55:27;;;;;;;8.80;2.40;;;;;;;;;;5012213;28;20234;-65
2022/08/02 04:57:54;;;;;;;7.10;2.20;;;;;;;;;;5045834;28;20214;-66
2022/08/02 05:00:19;;;;;;;6.72;2.08;;;;;;;;;;5051139;28;20447;-66
2022/08/02 05:02:44;;;;;;;7.68;1.90;;;;;;;;;;5039846;28;20685;-62
2022/08/02 05:05:10;;;;;;;9.90;2.25;;;;;;;;;;5057520;28;20223;-65
2022/08/02 05:07:35;;;;;;;6.72;2.10;;;;;;;;;;5058093;28;20218;-62
2022/08/02 05:10:00;;;;;;;7.50;1.88;;;;;;;;;;5060123;28;20365;-63
2022/08/02 05:12:26;;;;;;;6.43;2.00;;;;;;;;;;5038355;28;20269;-64
2022/08/02 05:14:51;;;;;;;7.95;1.92;;;;;;;;;;5041068;28;20219;-65
2022/08/02 05:17:16;;;;;;;7.03;2.00;;;;;;;;;;5042023;28;20613;-64
2022/08/02 05:19:42;;;;;;;5.80;2.20;;;;;;;;;;5041220;28;20216;-63
2022/08/02 05:22:07;;;;;;;6.05;2.13;;;;;;;;;;5041987;28;20215;-64
2022/08/02 05:24:32;;;;;;;6.68;2.10;;;;;;;;;;5041858;28;20664;-64
2022/08/02 05:26:58;;;;;;;5.22;1.88;;;;;;;;;;5041903;28;20715;-64
2022/08/02 05:29:23;;;;;;;6.28;2.35;;;;;;;;;;5041242;28;20211;-65
2022/08/02 05:31:48;;;;;;;8.85;2.47;;;;;;;;;;5037648;28;20264;-65
2022/08/02 05:34:14;;;;;;;6.68;2.60;;;;;;;;;;5037759;28;20301;-66
2022/08/02 05:36:39;;;;;;;9.10;2.50;;;;;;;;;;5040896;28;20207;-65
2022/08/02 05:39:04;;;;;;;5.43;2.40;;;;;;;;;;5034821;28;20196;-65
2022/08/02 05:41:30;;;;;;;9.35;2.90;;;;;;;;;;5041926;28;20225;-66
2022/08/02 05:43:55;;;;;;;7.20;2.42;;;;;;;;;;5039608;28;20738;-65
2022/08/02 05:46:20;;;;;;;6.55;2.42;;;;;;;;;;5039836;28;20207;-65
2022/08/02 05:48:46;;;;;;;8.07;2.75;;;;;;;;;;5031514;28;20239;-65
2022/08/02 05:51:11;;;;;;;10.05;3.03;;;;;;;;;;5031991;28;20234;-66
2022/08/02 05:53:40;;;;;;;13.60;3.42;;;;;;;;;;5037031;28;20247;-63
2022/08/02 05:56:08;;;;;;;9.15;3.20;;;;;;;;;;5033922;28;20743;-63
2022/08/02 05:58:43;;;;;;;10.32;3.85;;;;;;;;;;5034648;28;20682;-64
2022/08/02 06:01:08;;;;;;;9.38;4.25;;;;;;;;;;5030267;28;20227;-64
2022/08/02 06:03:35;;;;;;;7.50;4.05;;;;;;;;;;5030038;28;20248;-65
2022/08/02 06:06:05;;;;;;;13.27;4.93;;;;;;;;;;5031808;28;20583;-65
2022/08/02 06:08:32;;;;;;;11.20;4.43;;;;;;;;;;5019399;28;20218;-65
2022/08/02 06:10:58;;;;;;;18.67;5.30;;;;;;;;;;5027452;28;20227;-64
2022/08/02 06:13:23;;;;;;;11.55;4.50;;;;;;;;;;5014105;28;20277;-64
2022/08/02 06:15:48;;;;;;;10.88;4.40;;;;;;;;;;5014591;28;20239;-64
2022/08/02 06:18:13;;;;;;;15.10;4.70;;;;;;;;;;5013208;28;20303;-64
2022/08/02 06:20:39;;;;;;;33.08;5.63;;;;;;;;;;5014586;28;20314;-64
2022/08/02 06:23:05;;;;;;;13.05;4.50;;;;;;;;;;5013856;28;20238;-65
2022/08/02 06:25:31;;;;;;;19.50;5.55;;;;;;;;;;5031360;28;20204;-64
2022/08/02 06:27:57;;;;;;;9.40;4.28;;;;;;;;;;5032136;28;20257;-64
2022/08/02 06:30:22;;;;;;;10.30;4.88;;;;;;;;;;5030659;28;20220;-65
2022/08/02 06:32:48;;;;;;;8.95;5.00;;;;;;;;;;5032026;28;20214;-64
2022/08/02 06:35:14;;;;;;;10.07;4.57;;;;;;;;;;5013897;28;20587;-64
2022/08/02 06:37:42;;;;;;;12.70;5.20;;;;;;;;;;5041252;28;20207;-64
2022/08/02 06:40:16;;;;;;;9.82;4.93;;;;;;;;;;5033278;28;20217;-65
2022/08/02 06:42:50;;;;;;;10.60;4.88;;;;;;;;;;5034261;28;20222;-65
2022/08/02 06:45:16;;;;;;;8.13;4.55;;;;;;;;;;5032880;28;20269;-65
2022/08/02 06:47:41;;;;;;;11.65;4.80;;;;;;;;;;5051721;28;20211;-66
2022/08/02 06:50:06;;;;;;;12.30;5.00;;;;;;;;;;5051086;28;20219;-67
2022/08/02 06:52:32;;;;;;;15.52;5.18;;;;;;;;;;5053808;28;20298;-65
2022/08/02 06:54:58;;;;;;;12.15;4.57;;;;;;;;;;5058509;28;20253;-65
2022/08/02 06:57:23;;;;;;;16.63;5.30;;;;;;;;;;5040866;28;20677;-66
2022/08/02 06:59:48;;;;;;;8.90;4.95;;;;;;;;;;5050793;28;20221;-65
2022/08/02 07:02:13;;;;;;;10.32;4.78;;;;;;;;;;5051340;28;20215;-66
2022/08/02 07:04:39;;;;;;;11.70;5.32;;;;;;;;;;5051361;28;20227;-66
2022/08/02 07:07:04;;;;;;;9.95;4.95;;;;;;;;;;5050128;28;20219;-66
2022/08/02 07:09:30;;;;;;;12.65;5.07;;;;;;;;;;5051942;28;20265;-67
2022/08/02 07:11:55;;;;;;;11.30;4.95;;;;;;;;;;5054831;28;20220;-67
2022/08/02 07:14:20;;;;;;;10.02;5.05;;;;;;;;;;5053849;28;20212;-64
2022/08/02 07:16:46;;;;;;;11.45;5.22;;;;;;;;;;5055012;28;20255;-68
2022/08/02 07:19:11;;;;;;;9.90;5.30;;;;;;;;;;5054262;28;20667;-67
2022/08/02 07:21:36;;;;;;;11.80;5.72;;;;;;;;;;5053874;28;20296;-66
2022/08/02 07:24:02;;;;;;;12.02;5.38;;;;;;;;;;5036600;28;20290;-66
2022/08/02 07:26:27;;;;;;;10.45;4.72;;;;;;;;;;5054603;28;20235;-66
2022/08/02 07:28:53;;;;;;;10.07;4.57;;;;;;;;;;5053801;28;20238;-66
2022/08/02 07:31:19;;;;;;;13.57;5.03;;;;;;;;;;5054103;28;20250;-65
2022/08/02 07:33:44;;;;;;;9.02;4.38;;;;;;;;;;5053758;28;20234;-66
2022/08/02 07:36:09;;;;;;;8.82;4.55;;;;;;;;;;5053794;28;20219;-66
2022/08/02 07:38:35;;;;;;;7.32;4.20;;;;;;;;;;5054514;28;20222;-66
2022/08/02 07:41:00;;;;;;;9.35;4.40;;;;;;;;;;5056459;28;20217;-65
2022/08/02 07:43:26;;;;;;;7.90;4.43;;;;;;;;;;5061072;28;20684;-65
2022/08/02 07:45:51;;;;;;;9.55;4.25;;;;;;;;;;5062127;28;20299;-66
2022/08/02 07:48:16;;;;;;;11.20;4.22;;;;;;;;;;5053025;28;20281;-66
2022/08/02 07:50:41;;;;;;;11.23;4.10;;;;;;;;;;5053740;28;20686;-66
2022/08/02 07:53:07;;;;;;;9.15;3.50;;;;;;;;;;5053816;28;20249;-65
2022/08/02 07:55:32;;;;;;;7.95;3.47;;;;;;;;;;5053268;28;20219;-65
2022/08/02 07:57:57;;;;;;;5.97;2.85;;;;;;;;;;5054151;28;20257;-66
2022/08/02 08:00:23;;;;;;;13.45;3.53;;;;;;;;;;5053558;28;20239;-66
2022/08/02 08:02:48;;;;;;;9.40;3.40;;;;;;;;;;5053291;28;20211;-65
2022/08/02 08:05:14;;;;;;;9.52;3.30;;;;;;;;;;5053291;28;20643;-65
2022/08/02 08:07:39;;;;;;;18.30;3.80;;;;;;;;;;5053731;28;20313;-65
2022/08/02 08:10:05;;;;;;;6.75;3.22;;;;;;;;;;5052462;28;20585;-65
2022/08/02 08:12:30;;;;;;;7.78;3.20;;;;;;;;;;5053738;28;20206;-65
2022/08/02 08:14:55;;;;;;;8.82;3.70;;;;;;;;;;5053884;28;20210;-65
2022/08/02 08:17:21;;;;;;;14.45;3.60;;;;;;;;;;5052614;28;20207;-65
2022/08/02 08:19:46;;;;;;;11.65;4.00;;;;;;;;;;5053821;28;20219;-65
2022/08/02 08:22:11;;;;;;;10.13;3.55;;;;;;;;;;5053086;28;20660;-65
2022/08/02 08:24:37;;;;;;;6.75;4.03;;;;;;;;;;5053031;28;20637;-64
2022/08/02 08:27:02;;;;;;;8.38;4.07;;;;;;;;;;5052929;28;20298;-65
2022/08/02 08:29:27;;;;;;;16.65;4.20;;;;;;;;;;5035542;28;20681;-66
2022/08/02 08:31:53;;;;;;;9.00;3.80;;;;;;;;;;5046717;28;20314;-66
2022/08/02 08:34:18;;;;;;;8.07;4.05;;;;;;;;;;5052574;28;20298;-65
2022/08/02 08:36:43;;;;;;;10.75;4.32;;;;;;;;;;5053213;28;20674;-65
2022/08/02 08:39:09;;;;;;;8.13;4.47;;;;;;;;;;5051591;28;20211;-64
2022/08/02 08:41:34;;;;;;;17.58;3.88;;;;;;;;;;5053384;28;20257;-64
2022/08/02 08:44:00;;;;;;;23.77;4.45;;;;;;;;;;5052863;28;20630;-65
2022/08/02 08:46:26;;;;;;;11.68;4.40;;;;;;;;;;5035112;28;20207;-64
2022/08/02 08:48:52;;;;;;;13.45;4.32;;;;;;;;;;5053418;28;20229;-64
2022/08/02 08:51:18;;;;;;;6.82;4.10;;;;;;;;;;5051704;28;20227;-65
2022/08/02 08:53:44;;;;;;;7.28;4.22;;;;;;;;;;5035454;28;20229;-64
2022/08/02 08:56:10;;;;;;;7.82;3.72;;;;;;;;;;5053094;28;20215;-65
2022/08/02 08:58:37;;;;;;;13.32;4.00;;;;;;;;;;5052269;28;20214;-64
2022/08/02 09:01:03;;;;;;;14.02;3.78;;;;;;;;;;5034741;28;20214;-62
2022/08/02 09:03:28;;;;;;;17.77;4.70;;;;;;;;;;5053075;28;20215;-62
2022/08/02 09:05:54;;;;;;;10.23;5.15;;;;;;;;;;5051746;28;20231;-62
2022/08/02 09:08:19;;;;;;;7.88;3.83;;;;;;;;;;5034642;28;20207;-63
2022/08/02 09:10:45;;;;;;;16.70;4.32;;;;;;;;;;5052531;28;20277;-64
2022/08/02 09:13:11;;;;;;;6.80;3.90;;;;;;;;;;5033688;28;20225;-64
2022/08/02 09:15:37;;;;;;;10.57;3.60;;;;;;;;;;5053069;28;20295;-64
2022/08/02 09:18:04;;;;;;;5.07;3.85;;;;;;;;;;5052598;28;20238;-65
2022/08/02 09:20:29;;;;;;;9.52;3.88;;;;;;;;;;5051645;28;20222;-64
2022/08/02 09:23:07;;;;;;;6.78;3.88;;;;;;;;;;5052608;28;20211;-64
2022/08/02 09:25:33;;;;;;;7.70;3.83;;;;;;;;;;5052342;28;20207;-65
2022/08/02 09:27:58;;;;;;;9.60;4.00;;;;;;;;;;5051890;28;20221;-64
2022/08/02 09:30:25;;;;;;;5.82;3.85;;;;;;;;;;5052042;28;20219;-65
2022/08/02 09:32:50;;;;;;;7.10;3.40;;;;;;;;;;5052158;28;20215;-64
2022/08/02 09:35:35;;;;;;;7.60;3.40;;;;;;;;;;5051092;28;20276;-65
2022/08/02 09:38:09;;;;;;;8.65;3.03;;;;;;;;;;5054120;28;20269;-66
2022/08/02 09:40:36;;;;;;;9.80;3.10;;;;;;;;;;5056981;28;20647;-65
2022/08/02 09:43:01;;;;;;;8.00;2.58;;;;;;;;;;5053341;28;20503;-65
2022/08/02 09:45:33;;;;;;;21.05;3.70;;;;;;;;;;5052427;28;20709;-65
2022/08/02 09:48:06;;;;;;;7.57;2.60;;;;;;;;;;5051661;28;20221;-65
2022/08/02 09:50:32;;;;;;;6.30;2.63;;;;;;;;;;5051505;28;20307;-65
2022/08/02 09:52:57;;;;;;;9.95;2.70;;;;;;;;;;5052106;28;20294;-65
2022/08/02 09:55:23;;;;;;;9.35;2.83;;;;;;;;;;5033233;28;20222;-65
2022/08/02 09:57:48;;;;;;;4.20;2.47;;;;;;;;;;5052301;28;20261;-65
2022/08/02 10:00:14;;;;;;;8.25;2.10;;;;;;;;;;5033937;28;20302;-64
2022/08/02 10:02:39;;;;;;;11.80;2.83;;;;;;;;;;5051363;28;20222;-65
2022/08/02 10:05:04;;;;;;;9.43;2.60;;;;;;;;;;5050965;28;20254;-65
2022/08/02 10:07:30;;;;;;;4.78;1.58;;;;;;;;;;5052127;28;20584;-66
2022/08/02 10:09:55;;;;;;;2.83;1.42;;;;;;;;;;5033201;28;20634;-66
2022/08/02 10:12:22;;;;;;;7.40;1.58;;;;;;;;;;5051768;28;20260;-67
2022/08/02 10:14:48;;;;;;;6.53;1.60;;;;;;;;;;5034386;28;20215;-66
2022/08/02 10:17:14;;;;;;;4.53;1.40;;;;;;;;;;5050798;28;20207;-66
2022/08/02 10:19:39;;;;;;;6.85;2.03;;;;;;;;;;5051539;28;20694;-67
2022/08/02 10:22:05;;;;;;;2.58;1.30;;;;;;;;;;5051576;28;20215;-66
2022/08/02 10:24:31;;;;;;;2.17;1.20;;;;;;;;;;5050998;28;20211;-66
2022/08/02 10:26:58;;;;;;;2.95;1.10;;;;;;;;;;5051876;28;20326;-66
2022/08/02 10:29:26;;;;;;;6.18;1.52;;;;;;;;;;5051431;28;20561;-65
2022/08/02 10:31:53;;;;;;;5.32;1.50;;;;;;;;;;5051452;28;20306;-66
2022/08/02 10:34:20;;;;;;;3.63;1.50;;;;;;;;;;5051303;28;20302;-66
2022/08/02 10:36:45;;;;;;;4.32;1.52;;;;;;;;;;5050841;28;20211;-65
2022/08/02 10:39:11;;;;;;;5.20;1.50;;;;;;;;;;5033161;28;20678;-67
2022/08/02 10:41:41;;;;;;;3.70;1.50;;;;;;;;;;5051671;28;20215;-67
2022/08/02 10:44:07;;;;;;;2.95;1.20;;;;;;;;;;5050510;28;20211;-66
2022/08/02 10:46:34;;;;;;;2.35;1.00;;;;;;;;;;5055583;28;20265;-67
2022/08/02 10:49:01;;;;;;;2.88;1.40;;;;;;;;;;5053284;28;20624;-67
2022/08/02 10:52:00;;;;;;;7.75;1.65;;;;;;;;;;5035712;28;20254;-67
2022/08/02 10:54:26;;;;;;;1.67;1.10;;;;;;;;;;5034790;28;20246;-67
2022/08/02 10:56:52;;;;;;;1.65;1.15;;;;;;;;;;5035462;28;20690;-66
2022/08/02 10:59:23;;;;;;;10.75;2.35;;;;;;;;;;5034096;28;20216;-69
2022/08/02 11:01:48;;;;;;;3.30;1.30;;;;;;;;;;5035532;28;20613;-66
2022/08/02 11:04:13;;;;;;;2.38;1.23;;;;;;;;;;5043575;28;20743;-68
2022/08/02 11:07:05;;;;;;;2.90;1.10;;;;;;;;;;5036566;28;20219;-67
2022/08/02 11:09:31;;;;;;;2.03;1.20;;;;;;;;;;5054798;28;20670;-67
2022/08/02 11:11:59;;;;;;;4.15;1.17;;;;;;;;;;5054602;28;20226;-69
2022/08/02 11:14:24;;;;;;;3.45;1.20;;;;;;;;;;5054855;28;20222;-67
2022/08/02 11:16:54;;;;;;;2.35;1.10;;;;;;;;;;5037798;28;20576;-68
2022/08/02 11:19:19;;;;;;;3.13;1.15;;;;;;;;;;5053583;28;20218;-70
2022/08/02 11:21:58;;;;;;;3.35;1.40;;;;;;;;;;5055328;28;20581;-67
2022/08/02 11:24:26;;;;;;;3.45;1.10;;;;;;;;;;5036709;28;20241;-67
2022/08/02 11:26:52;;;;;;;5.47;1.20;;;;;;;;;;5054397;28;20218;-66
2022/08/02 11:29:17;;;;;;;4.15;1.27;;;;;;;;;;5054555;28;20215;-67
2022/08/02 11:31:43;;;;;;;1.40;1.00;;;;;;;;;;5054755;28;20804;-67
2022/08/02 11:34:09;;;;;;;3.20;1.30;;;;;;;;;;5053565;28;20222;-67
2022/08/02 11:36:43;;;;;;;2.80;1.45;;;;;;;;;;5054917;28;20546;-66
2022/08/02 11:39:10;;;;;;;3.20;1.27;;;;;;;;;;5054181;28;20297;-66
2022/08/02 11:41:35;;;;;;;1.70;1.20;;;;;;;;;;5036465;28;20215;-66
2022/08/02 11:44:01;;;;;;;1.67;1.10;;;;;;;;;;5054630;28;20215;-66
2022/08/02 11:46:26;;;;;;;2.97;1.30;;;;;;;;;;5037045;28;20601;-62
2022/08/02 11:48:51;;;;;;;6.80;1.40;;;;;;;;;;5053812;28;20666;-61
2022/08/02 11:51:17;;;;;;;2.10;1.27;;;;;;;;;;5053565;28;20215;-61
2022/08/02 11:53:49;;;;;;;2.45;1.27;;;;;;;;;;5054583;28;20219;-62
2022/08/02 11:56:14;;;;;;;8.18;1.45;;;;;;;;;;5053181;28;20261;-62
2022/08/02 11:58:40;;;;;;;2.42;1.40;;;;;;;;;;5036801;28;20211;-62
2022/08/02 12:01:05;;;;;;;2.97;1.13;;;;;;;;;;5052729;28;20203;-61
2022/08/02 12:03:34;;;;;;;3.58;1.38;;;;;;;;;;5054286;28;20562;-61
2022/08/02 12:06:00;;;;;;;2.85;1.55;;;;;;;;;;5053778;28;20231;-61
2022/08/02 12:08:25;;;;;;;2.72;1.42;;;;;;;;;;5035320;28;20290;-61
2022/08/02 12:10:51;;;;;;;1.55;0.90;;;;;;;;;;5053871;28;20561;-61
2022/08/02 12:13:16;;;;;;;4.28;1.33;;;;;;;;;;5053778;28;20243;-60
2022/08/02 12:15:44;;;;;;;6.30;1.65;;;;;;;;;;5052886;28;20619;-61
2022/08/02 12:21:00;;;;;;;2.15;1.35;;;;;;;;;;5053355;28;20789;-63
2022/08/02 12:23:26;;;;;;;4.30;1.38;;;;;;;;;;5035547;28;20293;-61
2022/08/02 12:26:02;;;;;;;2.55;1.20;;;;;;;;;;5054050;28;20246;-62
2022/08/02 12:28:27;;;;;;;1.52;1.10;;;;;;;;;;5053593;28;20268;-62
2022/08/02 12:30:54;;;;;;;3.75;0.93;;;;;;;;;;5052687;28;20223;-61
2022/08/02 12:33:19;;;;;;;3.45;1.10;;;;;;;;;;5053233;28;20211;-61
2022/08/02 12:35:45;;;;;;;3.13;1.02;;;;;;;;;;5053681;28;20220;-61
2022/08/02 12:38:10;;;;;;;4.45;1.02;;;;;;;;;;5052427;28;20585;-61
2022/08/02 12:40:36;;;;;;;2.72;1.10;;;;;;;;;;5053230;28;20219;-62
2022/08/02 12:43:02;;;;;;;1.65;1.10;;;;;;;;;;5053200;28;20580;-62
2022/08/02 12:45:28;;;;;;;5.18;1.52;;;;;;;;;;5052858;28;20219;-62
2022/08/02 12:47:54;;;;;;;4.40;1.20;;;;;;;;;;5035581;28;20215;-61
2022/08/02 12:50:20;;;;;;;2.90;1.17;;;;;;;;;;5051748;28;20758;-62
2022/08/02 12:52:46;;;;;;;4.88;1.35;;;;;;;;;;5053488;28;20226;-62
2022/08/02 12:55:16;;;;;;;6.07;1.35;;;;;;;;;;5051235;28;20214;-62
2022/08/02 12:57:51;;;;;;;5.35;1.25;;;;;;;;;;5052351;28;20251;-62
2022/08/02 13:00:21;;;;;;;6.63;1.30;;;;;;;;;;5052840;28;20218;-62
2022/08/02 13:02:47;;;;;;;6.43;1.38;;;;;;;;;;5036724;28;20718;-62
2022/08/02 13:05:12;;;;;;;3.30;1.20;;;;;;;;;;5029426;28;20228;-62
2022/08/02 13:07:37;;;;;;;7.40;1.30;;;;;;;;;;5027256;28;20261;-62
2022/08/02 13:10:03;;;;;;;2.65;1.10;;;;;;;;;;5022405;28;20777;-62
2022/08/02 13:12:28;;;;;;;11.35;1.40;;;;;;;;;;5039465;28;20238;-62
2022/08/02 13:14:53;;;;;;;7.20;1.10;;;;;;;;;;5046704;28;20218;-61
2022/08/02 13:17:19;;;;;;;2.22;1.20;;;;;;;;;;5045779;28;20222;-61
2022/08/02 13:19:44;;;;;;;2.97;1.15;;;;;;;;;;5023102;28;20848;-62
2022/08/02 13:22:09;;;;;;;3.38;1.15;;;;;;;;;;5027008;28;20218;-62
2022/08/02 13:24:35;;;;;;;3.17;1.00;;;;;;;;;;5026947;28;21031;-62
2022/08/02 13:27:00;;;;;;;4.55;1.42;;;;;;;;;;5019966;28;20965;-62
2022/08/02 13:29:25;;;;;;;9.98;1.10;;;;;;;;;;5018738;28;20216;-62
2022/08/02 13:31:51;;;;;;;2.75;1.27;;;;;;;;;;5019350;28;20713;-62
2022/08/02 13:34:16;;;;;;;6.38;1.10;;;;;;;;;;5024685;28;20270;-63
2022/08/02 13:36:41;;;;;;;2.83;1.08;;;;;;;;;;5043195;28;20215;-61
2022/08/02 13:39:08;;;;;;;3.65;0.98;;;;;;;;;;5026334;28;20231;-63
2022/08/02 13:41:33;;;;;;;3.65;0.93;;;;;;;;;;5026117;28;20223;-62
2022/08/02 13:43:58;;;;;;;3.25;1.00;;;;;;;;;;5026911;28;20249;-61
2022/08/02 13:46:24;;;;;;;2.58;1.00;;;;;;;;;;5025498;28;20215;-62
2022/08/02 13:48:49;;;;;;;8.25;1.30;;;;;;;;;;5022744;28;20829;-62
2022/08/02 13:51:14;;;;;;;2.97;1.00;;;;;;;;;;5018229;28;20592;-61
2022/08/02 13:53:40;;;;;;;12.48;1.90;;;;;;;;;;5017864;28;20687;-62
2022/08/02 13:56:05;;;;;;;1.95;1.02;;;;;;;;;;5005064;28;20212;-62
2022/08/02 13:58:30;;;;;;;1.67;0.70;;;;;;;;;;5045495;28;20223;-61
2022/08/02 14:00:56;;;;;;;5.30;1.30;;;;;;;;;;5044870;28;20430;-61
2022/08/02 14:03:21;;;;;;;2.15;1.00;;;;;;;;;;5043828;28;20211;-61
2022/08/02 14:05:46;;;;;;;2.13;1.02;;;;;;;;;;5026886;28;20262;-61
2022/08/02 14:08:12;;;;;;;5.78;1.10;;;;;;;;;;5025117;28;20216;-61
2022/08/02 14:10:37;;;;;;;3.05;0.77;;;;;;;;;;5026448;28;20232;-61
2022/08/02 14:13:03;;;;;;;4.97;0.88;;;;;;;;;;5037161;28;20223;-62
2022/08/02 14:15:28;;;;;;;5.53;1.20;;;;;;;;;;5037445;28;20203;-61
2022/08/02 14:17:53;;;;;;;4.47;1.00;;;;;;;;;;5039368;28;20564;-62
2022/08/02 14:20:19;;;;;;;1.02;0.73;;;;;;;;;;5048478;28;20314;-61
2022/08/02 14:22:44;;;;;;;3.13;1.02;;;;;;;;;;5049099;28;20214;-61
2022/08/02 14:25:09;;;;;;;3.75;0.95;;;;;;;;;;5049395;28;20215;-61
2022/08/02 14:27:34;;;;;;;3.83;0.90;;;;;;;;;;5049842;28;20219;-61
2022/08/02 14:30:00;;;;;;;5.70;0.80;;;;;;;;;;5049234;28;20265;-61
2022/08/02 14:32:25;;;;;;;3.05;1.10;;;;;;;;;;5049204;28;20280;-61
2022/08/02 14:34:51;;;;;;;4.07;1.00;;;;;;;;;;5042611;28;20620;-62
2022/08/02 14:37:16;;;;;;;5.90;1.15;;;;;;;;;;5040668;28;20530;-62
2022/08/02 14:39:42;;;;;;;2.83;1.42;;;;;;;;;;5022395;28;20760;-62